createdAt,value
2023-08-22T00:00:33.741Z,5.37
2023-08-22T00:03:01.473Z,6.10
2023-08-22T00:05:28.839Z,5.77
2023-08-22T00:07:55.784Z,6.30
2023-08-22T00:10:23.226Z,5.90
2023-08-22T00:12:50.130Z,6.47
2023-08-22T00:15:17.257Z,6.10
2023-08-22T00:17:45.168Z,5.70
2023-08-22T00:20:13.449Z,5.63
2023-08-22T00:22:40.851Z,5.73
2023-08-22T00:25:08.711Z,5.67
2023-08-22T00:27:35.973Z,5.50
2023-08-22T00:30:03.997Z,6.47
2023-08-22T00:32:31.876Z,5.97
2023-08-22T00:34:59.107Z,6.30
2023-08-22T00:37:26.115Z,6.00
2023-08-22T00:39:53.233Z,5.80
2023-08-22T00:42:20.135Z,6.03
2023-08-22T00:44:47.320Z,5.73
2023-08-22T00:47:17.367Z,5.17
2023-08-22T00:49:44.444Z,5.77
2023-08-22T00:52:11.598Z,5.87
2023-08-22T00:54:38.626Z,6.97
2023-08-22T00:57:05.780Z,6.33
2023-08-22T00:59:33.401Z,5.47
2023-08-22T01:02:00.538Z,6.00
2023-08-22T01:04:27.577Z,5.77
2023-08-22T01:06:57.161Z,6.33
2023-08-22T01:09:38.300Z,6.50
2023-08-22T01:12:22.945Z,5.37
2023-08-22T01:15:00.097Z,6.17
2023-08-22T01:17:27.834Z,6.77
2023-08-22T01:19:55.058Z,6.60
2023-08-22T01:22:29.192Z,6.40
2023-08-22T01:24:56.238Z,6.27
2023-08-22T01:27:30.047Z,7.13
2023-08-22T01:30:06.288Z,6.53
2023-08-22T01:32:39.563Z,5.57
2023-08-22T01:35:09.908Z,6.20
2023-08-22T01:37:37.491Z,5.57
2023-08-22T01:40:07.195Z,6.70
2023-08-22T01:42:34.434Z,5.73
2023-08-22T01:45:01.374Z,5.63
2023-08-22T01:47:28.326Z,6.90
2023-08-22T01:49:55.902Z,6.40
2023-08-22T01:52:22.811Z,5.97
2023-08-22T01:54:51.195Z,6.23
2023-08-22T01:57:18.076Z,6.40
2023-08-22T01:59:44.930Z,6.03
2023-08-22T02:02:11.728Z,7.43
2023-08-22T02:04:38.588Z,6.17
2023-08-22T02:07:05.489Z,6.93
2023-08-22T02:09:32.447Z,6.17
2023-08-22T02:11:59.320Z,6.40
2023-08-22T02:14:26.150Z,6.80
2023-08-22T02:16:53.314Z,6.30
2023-08-22T02:19:20.168Z,5.70
2023-08-22T02:21:49.277Z,6.33
2023-08-22T02:24:16.477Z,5.93
2023-08-22T02:26:44.566Z,5.90
2023-08-22T02:29:11.426Z,6.80
2023-08-22T02:31:38.327Z,5.30
2023-08-22T02:34:05.994Z,6.03
2023-08-22T02:36:32.956Z,5.97
2023-08-22T02:38:59.951Z,6.23
2023-08-22T02:41:26.924Z,5.97
2023-08-22T02:43:53.802Z,6.60
2023-08-22T02:46:20.760Z,6.27
2023-08-22T02:48:47.682Z,5.80
2023-08-22T02:51:15.123Z,6.47
2023-08-22T02:53:42.085Z,6.10
2023-08-22T02:56:08.960Z,6.50
2023-08-22T02:58:35.878Z,6.70
2023-08-22T03:01:05.713Z,6.53
2023-08-22T03:03:34.570Z,6.33
2023-08-22T03:06:01.813Z,6.10
2023-08-22T03:08:29.194Z,6.83
2023-08-22T03:11:00.853Z,6.80
2023-08-22T03:13:29.777Z,6.57
2023-08-22T03:15:58.944Z,5.77
2023-08-22T03:18:26.884Z,6.07
2023-08-22T03:20:56.073Z,6.57
2023-08-22T03:23:23.619Z,5.87
2023-08-22T03:26:00.226Z,6.20
2023-08-22T03:28:27.701Z,6.60
2023-08-22T03:30:59.139Z,6.27
2023-08-22T03:33:26.561Z,6.40
2023-08-22T03:35:56.964Z,7.17
2023-08-22T03:38:24.643Z,7.87
2023-08-22T03:40:53.725Z,6.60
2023-08-22T03:43:20.797Z,7.27
2023-08-22T03:45:47.992Z,6.93
2023-08-22T03:48:14.973Z,7.40
2023-08-22T03:50:43.567Z,7.20
2023-08-22T03:53:11.850Z,7.07
2023-08-22T03:55:39.618Z,7.10
2023-08-22T03:58:06.531Z,6.90
2023-08-22T04:00:33.580Z,6.80
2023-08-22T04:03:01.051Z,6.20
2023-08-22T04:05:28.235Z,6.87
2023-08-22T04:07:55.131Z,7.43
2023-08-22T04:10:22.354Z,6.90
2023-08-22T04:12:49.315Z,7.17
2023-08-22T04:15:16.836Z,7.80
2023-08-22T04:17:44.161Z,8.10
2023-08-22T04:20:12.568Z,7.47
2023-08-22T04:22:42.570Z,6.60
2023-08-22T04:25:11.719Z,6.87
2023-08-22T04:27:40.437Z,6.30
2023-08-22T04:30:08.709Z,8.40
2023-08-22T04:32:36.604Z,8.00
2023-08-22T04:35:03.838Z,7.90
2023-08-22T04:37:31.404Z,8.30
2023-08-22T04:39:59.030Z,7.30
2023-08-22T04:42:26.162Z,7.50
2023-08-22T04:44:53.063Z,7.00
2023-08-22T04:47:19.967Z,6.40
2023-08-22T04:49:47.376Z,7.63
2023-08-22T04:52:14.377Z,7.63
2023-08-22T04:54:42.061Z,7.00
2023-08-22T04:57:09.285Z,6.53
2023-08-22T04:59:37.115Z,6.40
2023-08-22T05:02:04.034Z,6.50
2023-08-22T05:04:30.933Z,7.07
2023-08-22T05:06:57.935Z,6.70
2023-08-22T05:09:27.009Z,7.07
2023-08-22T05:11:54.093Z,6.27
2023-08-22T05:14:22.786Z,6.57
2023-08-22T05:16:49.851Z,6.53
2023-08-22T05:19:16.849Z,6.60
2023-08-22T05:21:43.655Z,7.10
2023-08-22T05:24:10.513Z,7.13
2023-08-22T05:26:37.415Z,7.17
2023-08-22T05:29:04.386Z,7.60
2023-08-22T05:31:31.465Z,7.80
2023-08-22T05:33:58.277Z,6.70
2023-08-22T05:36:25.167Z,7.43
2023-08-22T05:38:52.664Z,6.33
2023-08-22T05:41:19.460Z,7.13
2023-08-22T05:43:46.335Z,7.53
2023-08-22T05:46:13.290Z,7.70
2023-08-22T05:48:40.143Z,6.90
2023-08-22T05:51:07.108Z,6.23
2023-08-22T05:53:33.997Z,6.53
2023-08-22T05:56:00.991Z,6.17
2023-08-22T05:58:28.020Z,6.70
2023-08-22T06:00:54.971Z,6.80
2023-08-22T06:03:21.812Z,6.63
2023-08-22T06:05:48.791Z,7.07
2023-08-22T06:08:15.617Z,6.83
2023-08-22T06:10:45.901Z,7.30
2023-08-22T06:13:12.709Z,6.90
2023-08-22T06:15:39.704Z,6.73
2023-08-22T06:18:06.894Z,7.40
2023-08-22T06:20:39.032Z,6.80
2023-08-22T06:23:06.925Z,7.07
2023-08-22T06:25:34.825Z,7.00
2023-08-22T06:28:02.063Z,7.17
2023-08-22T06:30:29.326Z,6.63
2023-08-22T06:32:56.309Z,7.00
2023-08-22T06:35:23.248Z,7.63
2023-08-22T06:37:52.716Z,6.93
2023-08-22T06:40:19.752Z,6.30
2023-08-22T06:42:46.667Z,7.53
2023-08-22T06:45:13.637Z,6.87
2023-08-22T06:47:41.058Z,6.77
2023-08-22T06:50:09.013Z,6.43
2023-08-22T06:52:36.662Z,8.13
2023-08-22T06:55:03.873Z,7.10
2023-08-22T06:57:31.969Z,7.20
2023-08-22T07:00:02.444Z,7.03
2023-08-22T07:02:29.662Z,6.30
2023-08-22T07:04:56.696Z,6.60
2023-08-22T07:07:23.722Z,7.07
2023-08-22T07:09:51.741Z,6.60
2023-08-22T07:12:18.847Z,6.10
2023-08-22T07:14:45.707Z,6.83
2023-08-22T07:17:12.603Z,6.30
2023-08-22T07:19:42.063Z,6.43
2023-08-22T07:22:10.026Z,5.83
2023-08-22T07:24:37.055Z,6.10
2023-08-22T07:27:04.106Z,5.90
2023-08-22T07:29:31.138Z,5.80
2023-08-22T07:32:01.313Z,5.87
2023-08-22T07:34:29.160Z,5.63
2023-08-22T07:36:56.646Z,5.87
2023-08-22T07:39:27.757Z,5.23
2023-08-22T07:41:56.520Z,7.10
2023-08-22T07:44:25.408Z,5.40
2023-08-22T07:46:52.639Z,5.77
2023-08-22T07:49:19.857Z,5.83
2023-08-22T07:51:46.886Z,5.90
2023-08-22T07:54:13.896Z,5.33
2023-08-22T07:56:40.886Z,5.10
2023-08-22T07:59:07.925Z,4.47
2023-08-22T08:01:35.631Z,5.17
2023-08-22T08:04:03.652Z,5.43
2023-08-22T08:06:34.919Z,4.90
2023-08-22T08:09:02.591Z,6.03
2023-08-22T08:11:30.466Z,5.10
2023-08-22T08:13:58.363Z,5.68
2023-08-22T08:16:40.456Z,5.25
2023-08-22T08:19:08.254Z,4.80
2023-08-22T08:21:35.447Z,4.82
2023-08-22T08:24:05.616Z,5.32
2023-08-22T08:26:32.450Z,5.32
2023-08-22T08:28:59.437Z,5.10
2023-08-22T08:31:26.493Z,4.40
2023-08-22T08:33:53.546Z,4.90
2023-08-22T08:36:20.462Z,4.80
2023-08-22T08:38:47.607Z,4.13
2023-08-22T08:41:14.801Z,4.32
2023-08-22T08:43:43.304Z,3.83
2023-08-22T08:46:10.440Z,4.03
2023-08-22T08:48:39.440Z,4.03
2023-08-22T08:51:07.965Z,4.60
2023-08-22T08:53:37.371Z,4.55
2023-08-22T08:56:08.182Z,4.20
2023-08-22T08:58:35.105Z,4.10
2023-08-22T09:01:02.233Z,4.40
2023-08-22T09:03:30.673Z,4.00
2023-08-22T09:05:57.688Z,3.67
2023-08-22T09:08:24.771Z,4.10
2023-08-22T09:10:53.078Z,3.65
2023-08-22T09:13:39.002Z,4.30
2023-08-22T09:16:16.968Z,3.95
2023-08-22T09:18:43.965Z,4.05
2023-08-22T09:21:12.018Z,4.25
2023-08-22T09:23:42.347Z,3.78
2023-08-22T09:26:11.304Z,3.40
2023-08-22T09:28:42.024Z,3.97
2023-08-22T09:31:08.966Z,3.90
2023-08-22T09:33:51.624Z,4.00
2023-08-22T09:36:21.175Z,4.38
2023-08-22T09:38:53.349Z,3.67
2023-08-22T09:41:32.721Z,4.03
2023-08-22T09:44:02.770Z,3.40
2023-08-22T09:46:30.859Z,4.35
2023-08-22T09:49:00.325Z,4.43
2023-08-22T09:51:27.989Z,3.97
2023-08-22T09:54:06.211Z,3.20
2023-08-22T09:56:35.103Z,3.28
2023-08-22T09:59:03.549Z,3.92
2023-08-22T10:01:34.125Z,3.95
2023-08-22T10:04:04.883Z,3.40
2023-08-22T10:06:45.892Z,3.78
2023-08-22T10:09:14.527Z,3.60
2023-08-22T10:11:41.826Z,3.67
2023-08-22T10:14:12.451Z,3.78
2023-08-22T10:16:39.956Z,3.83
2023-08-22T10:19:10.227Z,4.20
2023-08-22T10:21:45.182Z,3.95
2023-08-22T10:24:28.324Z,3.47
2023-08-22T10:27:08.368Z,3.92
2023-08-22T10:29:36.932Z,3.60
2023-08-22T10:32:03.938Z,4.10
2023-08-22T10:34:46.057Z,3.35
2023-08-22T10:37:21.788Z,4.65
2023-08-22T10:39:50.265Z,3.60
2023-08-22T10:42:21.396Z,3.95
2023-08-22T10:44:51.015Z,3.92
2023-08-22T10:47:20.453Z,4.38
2023-08-22T10:52:37.663Z,3.90
2023-08-22T10:55:04.618Z,3.28
2023-08-22T10:57:34.585Z,3.00
2023-08-22T11:00:02.020Z,2.83
2023-08-22T11:02:31.777Z,4.57
2023-08-22T11:05:01.516Z,3.25
2023-08-22T11:07:29.831Z,4.28
2023-08-22T11:09:57.172Z,3.72
2023-08-22T11:12:26.909Z,3.35
2023-08-22T11:14:54.743Z,3.75
2023-08-22T11:17:22.973Z,4.45
2023-08-22T11:19:50.912Z,3.80
2023-08-22T11:22:17.783Z,4.18
2023-08-22T11:24:46.729Z,3.92
2023-08-22T11:27:14.372Z,3.97
2023-08-22T11:30:31.222Z,3.65
2023-08-22T11:32:58.035Z,3.72
2023-08-22T11:35:24.978Z,4.00
2023-08-22T11:37:52.353Z,3.40
2023-08-22T11:40:19.454Z,4.35
2023-08-22T11:42:48.075Z,4.28
2023-08-22T11:45:18.446Z,4.28
2023-08-22T11:47:46.896Z,4.10
2023-08-22T11:50:15.305Z,3.80
2023-08-22T11:52:43.475Z,4.13
2023-08-22T11:55:11.672Z,4.03
2023-08-22T11:57:40.176Z,4.45
2023-08-22T12:00:09.068Z,4.45
2023-08-22T12:02:37.093Z,4.68
2023-08-22T12:05:04.924Z,4.65
2023-08-22T12:07:43.001Z,4.72
2023-08-22T12:10:13.707Z,4.40
2023-08-22T12:12:40.540Z,5.30
2023-08-22T12:15:07.808Z,4.60
2023-08-22T12:17:34.703Z,3.80
2023-08-22T12:20:01.884Z,3.85
2023-08-22T12:22:28.697Z,3.65
2023-08-22T12:24:55.579Z,3.42
2023-08-22T12:27:22.605Z,3.90
2023-08-22T12:29:49.430Z,4.45
2023-08-22T12:32:16.231Z,4.25
2023-08-22T12:34:42.983Z,3.95
2023-08-22T12:37:09.869Z,3.63
2023-08-22T12:39:36.702Z,4.00
2023-08-22T12:42:03.695Z,3.78
2023-08-22T12:44:32.799Z,3.78
2023-08-22T12:47:00.721Z,3.40
2023-08-22T12:49:27.667Z,4.03
2023-08-22T12:51:54.562Z,3.88
2023-08-22T12:54:21.463Z,4.10
2023-08-22T12:56:48.247Z,3.75
2023-08-22T12:59:15.086Z,3.47
2023-08-22T13:01:42.039Z,3.58
2023-08-22T13:04:14.215Z,3.10
2023-08-22T13:06:41.384Z,3.20
2023-08-22T13:09:11.760Z,3.55
2023-08-22T13:11:42.227Z,3.30
2023-08-22T13:14:11.005Z,3.88
2023-08-22T13:16:39.739Z,3.80
2023-08-22T13:19:06.944Z,3.80
2023-08-22T13:21:34.758Z,3.55
2023-08-22T13:24:03.116Z,3.70
2023-08-22T13:26:30.696Z,3.60
2023-08-22T13:28:57.540Z,3.55
2023-08-22T13:31:24.463Z,3.83
2023-08-22T13:33:51.282Z,3.60
2023-08-22T13:36:18.198Z,3.30
2023-08-22T13:38:45.114Z,3.35
2023-08-22T13:41:11.926Z,3.60
2023-08-22T13:43:39.910Z,3.80
2023-08-22T13:46:07.612Z,2.75
2023-08-22T13:48:34.908Z,3.17
2023-08-22T13:51:01.841Z,3.70
2023-08-22T13:53:32.490Z,3.10
2023-08-22T13:55:59.576Z,3.35
2023-08-22T13:58:26.570Z,3.13
2023-08-22T14:00:53.443Z,2.95
2023-08-22T14:03:20.440Z,3.60
2023-08-22T14:05:47.377Z,3.58
2023-08-22T14:08:14.316Z,3.00
2023-08-22T14:10:41.200Z,3.97
2023-08-22T14:13:08.077Z,3.38
2023-08-22T14:15:35.009Z,2.92
2023-08-22T14:18:02.344Z,3.28
2023-08-22T14:20:29.197Z,3.35
2023-08-22T14:22:56.059Z,3.60
2023-08-22T14:25:26.178Z,3.95
2023-08-22T14:27:53.049Z,3.33
2023-08-22T14:30:19.805Z,3.10
2023-08-22T14:32:46.689Z,3.90
2023-08-22T14:35:14.784Z,4.03
2023-08-22T14:37:41.732Z,3.80
2023-08-22T14:40:09.059Z,4.03
2023-08-22T14:42:35.837Z,3.78
2023-08-22T14:45:02.752Z,3.50
2023-08-22T14:47:29.592Z,3.28
2023-08-22T14:49:56.501Z,3.70
2023-08-22T14:52:23.433Z,3.00
2023-08-22T14:54:50.338Z,3.50
2023-08-22T14:57:17.272Z,3.38
2023-08-22T14:59:44.499Z,3.20
2023-08-22T15:02:11.336Z,3.30
2023-08-22T15:04:38.220Z,2.95
2023-08-22T15:07:05.216Z,3.00
2023-08-22T15:09:32.011Z,3.20
2023-08-22T15:11:58.895Z,3.10
2023-08-22T15:14:25.807Z,3.70
2023-08-22T15:16:52.748Z,3.25
2023-08-22T15:19:19.607Z,2.97
2023-08-22T15:21:46.506Z,3.00
2023-08-22T15:24:13.334Z,3.60
2023-08-22T15:26:40.952Z,3.20
2023-08-22T15:29:07.829Z,3.30
2023-08-22T15:31:34.760Z,3.90
2023-08-22T15:34:01.649Z,3.28
2023-08-22T15:36:28.650Z,3.40
2023-08-22T15:38:55.556Z,3.95
2023-08-22T15:41:23.551Z,3.65
2023-08-22T15:43:50.990Z,3.22
2023-08-22T15:46:17.898Z,3.30
2023-08-22T15:48:44.804Z,6.20
2023-08-22T15:51:11.994Z,7.53
2023-08-22T15:53:40.010Z,19.15
2023-08-22T15:56:06.935Z,8.10
2023-08-22T15:58:34.261Z,4.68
2023-08-22T16:01:01.154Z,7.80
2023-08-22T16:03:28.256Z,5.53
2023-08-22T16:05:58.016Z,4.20
2023-08-22T16:08:25.174Z,4.88
2023-08-22T16:10:52.176Z,14.55
2023-08-22T16:13:19.056Z,7.13
2023-08-22T16:15:49.516Z,17.83
2023-08-22T16:18:16.659Z,22.42
2023-08-22T16:20:45.127Z,12.63
2023-08-22T16:23:12.944Z,7.00
2023-08-22T16:25:42.934Z,7.18
2023-08-22T16:28:10.091Z,4.40
2023-08-22T16:30:36.997Z,3.67
2023-08-22T16:33:04.110Z,3.42
2023-08-22T16:35:30.969Z,3.75
2023-08-22T16:37:57.803Z,3.53
2023-08-22T16:40:24.754Z,3.65
2023-08-22T16:42:51.645Z,3.42
2023-08-22T16:45:18.523Z,3.20
2023-08-22T16:47:47.099Z,3.35
2023-08-22T16:50:14.346Z,3.30
2023-08-22T16:52:41.260Z,2.95
2023-08-22T16:55:09.380Z,3.10
2023-08-22T16:57:36.317Z,3.55
2023-08-22T17:00:07.376Z,3.13
2023-08-22T17:02:34.361Z,3.45
2023-08-22T17:05:01.446Z,4.38
2023-08-22T17:07:28.274Z,3.72
2023-08-22T17:09:55.102Z,4.05
2023-08-22T17:12:21.943Z,3.10
2023-08-22T17:14:48.844Z,3.25
2023-08-22T17:17:15.903Z,3.47
2023-08-22T17:19:42.790Z,3.47
2023-08-22T17:22:09.689Z,3.60
2023-08-22T17:24:36.494Z,2.67
2023-08-22T17:27:03.919Z,3.10
2023-08-22T17:29:30.756Z,3.30
2023-08-22T17:31:57.907Z,10.32
2023-08-22T17:34:24.918Z,5.37
2023-08-22T17:36:52.036Z,6.32
2023-08-22T17:39:19.333Z,6.20
2023-08-22T17:41:46.392Z,4.30
2023-08-22T17:44:13.343Z,4.15
2023-08-22T17:46:40.350Z,5.30
2023-08-22T17:49:07.230Z,4.27
2023-08-22T17:51:34.072Z,4.68
2023-08-22T17:54:00.849Z,4.20
2023-08-22T17:56:27.833Z,4.22
2023-08-22T17:58:55.395Z,4.00
2023-08-22T18:01:22.441Z,3.90
2023-08-22T18:03:49.392Z,3.80
2023-08-22T18:06:16.337Z,3.30
2023-08-22T18:08:43.377Z,3.17
2023-08-22T18:11:11.967Z,3.13
2023-08-22T18:13:38.846Z,3.00
2023-08-22T18:16:10.446Z,3.27
2023-08-22T18:18:41.091Z,3.70
2023-08-22T18:21:11.111Z,3.00
2023-08-22T18:23:38.799Z,2.70
2023-08-22T18:26:08.839Z,2.83
2023-08-22T18:28:36.227Z,2.83
2023-08-22T18:31:10.156Z,3.20
2023-08-22T18:33:37.154Z,3.63
2023-08-22T18:36:04.425Z,3.10
2023-08-22T18:38:31.476Z,3.20
2023-08-22T18:40:58.808Z,3.30
2023-08-22T18:43:25.732Z,3.60
2023-08-22T18:45:52.721Z,4.37
2023-08-22T18:48:20.146Z,7.50
2023-08-22T18:50:58.327Z,12.05
2023-08-22T18:53:25.228Z,12.10
2023-08-22T18:55:52.106Z,4.80
2023-08-22T18:58:19.024Z,4.10
2023-08-22T19:00:45.889Z,3.60
2023-08-22T19:03:12.790Z,3.43
2023-08-22T19:05:39.765Z,3.37
2023-08-22T19:08:06.864Z,3.90
2023-08-22T19:10:34.516Z,3.77
2023-08-22T19:13:01.350Z,4.10
2023-08-22T19:15:28.231Z,3.70
2023-08-22T19:17:55.668Z,4.00
2023-08-22T19:20:23.148Z,4.00
2023-08-22T19:22:50.061Z,3.87
2023-08-22T19:25:16.980Z,3.87
2023-08-22T19:27:44.309Z,4.30
2023-08-22T19:30:12.002Z,3.97
2023-08-22T19:32:57.503Z,3.43
2023-08-22T19:35:27.388Z,4.10
2023-08-22T19:37:54.243Z,4.53
2023-08-22T19:40:21.120Z,4.10
2023-08-22T19:42:49.588Z,4.17
2023-08-22T19:45:16.524Z,4.60
2023-08-22T19:47:43.429Z,3.80
2023-08-22T19:50:10.962Z,3.83
2023-08-22T19:52:39.264Z,4.67
2023-08-22T19:55:06.869Z,4.80
2023-08-22T19:57:35.335Z,3.93
2023-08-22T20:00:02.337Z,3.73
2023-08-22T20:02:29.353Z,3.47
2023-08-22T20:04:56.498Z,4.17
2023-08-22T20:07:23.360Z,3.63
2023-08-22T20:09:50.286Z,3.63
2023-08-22T20:12:17.249Z,3.97
2023-08-22T20:14:44.191Z,3.60
2023-08-22T20:17:10.976Z,3.40
2023-08-22T20:19:37.860Z,3.50
2023-08-22T20:22:04.785Z,4.20
2023-08-22T20:24:31.851Z,4.03
2023-08-22T20:27:04.262Z,4.10
2023-08-22T20:29:31.242Z,4.47
2023-08-22T20:31:58.119Z,4.20
2023-08-22T20:34:25.698Z,4.37
2023-08-22T20:36:55.687Z,4.10
2023-08-22T20:39:26.252Z,4.10
2023-08-22T20:41:53.309Z,3.90
2023-08-22T20:44:20.397Z,4.40
2023-08-22T20:46:47.400Z,4.53
2023-08-22T20:49:14.189Z,4.10
2023-08-22T20:51:41.070Z,4.20
2023-08-22T20:54:08.207Z,3.80
2023-08-22T20:56:35.064Z,3.90
2023-08-22T20:59:02.180Z,4.00
2023-08-22T21:01:29.270Z,3.33
2023-08-22T21:03:57.206Z,4.57
2023-08-22T21:06:24.150Z,4.00
2023-08-22T21:08:51.373Z,4.10
2023-08-22T21:11:18.424Z,4.33
2023-08-22T21:13:45.337Z,4.17
2023-08-22T21:16:12.189Z,3.30
2023-08-22T21:18:39.037Z,4.67
2023-08-22T21:21:05.940Z,4.80
2023-08-22T21:23:32.714Z,4.37
2023-08-22T21:25:59.677Z,3.83
2023-08-22T21:28:26.585Z,4.00
2023-08-22T21:30:54.598Z,4.53
2023-08-22T21:33:21.572Z,3.90
2023-08-22T21:35:48.439Z,4.17
2023-08-22T21:38:15.373Z,4.53
2023-08-22T21:40:49.650Z,3.60
2023-08-22T21:43:16.609Z,3.93
2023-08-22T21:45:43.584Z,4.07
2023-08-22T21:48:10.434Z,3.83
2023-08-22T21:50:37.444Z,3.80
2023-08-22T21:53:04.477Z,3.57
2023-08-22T21:55:31.372Z,4.27
2023-08-22T21:57:58.280Z,5.13
2023-08-22T22:00:25.135Z,3.90
2023-08-22T22:02:52.204Z,4.20
2023-08-22T22:05:19.432Z,4.07
2023-08-22T22:07:46.681Z,3.60
2023-08-22T22:10:13.824Z,4.40
2023-08-22T22:12:40.653Z,4.67
2023-08-22T22:15:08.149Z,4.63
2023-08-22T22:17:35.284Z,3.93
2023-08-22T22:20:02.221Z,4.40
2023-08-22T22:22:29.606Z,3.77
2023-08-22T22:24:56.472Z,3.80
2023-08-22T22:27:23.422Z,4.30
2023-08-22T22:29:51.503Z,4.10
2023-08-22T22:32:18.550Z,4.30
2023-08-22T22:34:45.495Z,4.17
2023-08-22T22:37:12.391Z,4.00
2023-08-22T22:39:39.226Z,4.40
2023-08-22T22:42:06.250Z,3.60
2023-08-22T22:44:33.058Z,4.70
2023-08-22T22:47:01.007Z,5.00
2023-08-22T22:49:27.911Z,3.93
2023-08-22T22:51:54.873Z,3.83
2023-08-22T22:54:21.688Z,4.20
2023-08-22T22:56:48.637Z,4.00
2023-08-22T22:59:15.422Z,4.40
2023-08-22T23:01:42.293Z,3.70
2023-08-22T23:04:09.114Z,4.33
2023-08-22T23:06:35.961Z,4.93
2023-08-22T23:09:04.552Z,4.03
2023-08-22T23:11:42.198Z,4.20
2023-08-22T23:14:17.977Z,4.33
2023-08-22T23:16:44.920Z,4.10
2023-08-22T23:19:11.759Z,4.43
2023-08-22T23:21:38.534Z,4.23
2023-08-22T23:24:05.715Z,4.20
2023-08-22T23:26:32.591Z,4.30
2023-08-22T23:28:59.463Z,3.67
2023-08-22T23:31:26.353Z,3.57
2023-08-22T23:33:55.478Z,4.00
2023-08-22T23:36:24.079Z,4.13
2023-08-22T23:38:50.935Z,3.70
2023-08-22T23:41:17.755Z,4.27
2023-08-22T23:43:48.050Z,3.50
2023-08-22T23:46:16.865Z,4.33
2023-08-22T23:48:44.055Z,3.90
2023-08-22T23:51:16.906Z,3.83
2023-08-22T23:53:44.666Z,4.10
2023-08-22T23:56:11.572Z,3.93
2023-08-22T23:58:38.398Z,3.70
